createdAt,value
2023-07-16T00:05:42.484Z,8.60
2023-07-16T00:15:45.597Z,11.20
2023-07-16T00:25:53.020Z,10.10
2023-07-16T00:35:56.311Z,10.00
2023-07-16T00:45:59.890Z,9.00
2023-07-16T00:56:06.509Z,8.50
2023-07-16T01:07:13.645Z,7.30
2023-07-16T01:18:19.634Z,6.70
2023-07-16T01:29:29.754Z,7.10
2023-07-16T01:40:25.210Z,7.30
2023-07-16T01:51:22.164Z,7.40
2023-07-16T02:02:46.892Z,6.80
2023-07-16T02:14:11.695Z,6.30
2023-07-16T02:25:06.332Z,6.00
2023-07-16T02:36:21.076Z,5.80
2023-07-16T02:47:22.052Z,5.40
2023-07-16T02:58:29.357Z,5.60
2023-07-16T03:09:44.757Z,5.70
2023-07-16T03:21:11.205Z,5.20
2023-07-16T03:32:51.429Z,5.20
2023-07-16T03:44:16.977Z,4.80
2023-07-16T03:55:40.993Z,5.30
2023-07-16T04:07:05.874Z,5.10
2023-07-16T04:17:55.352Z,5.10
2023-07-16T04:40:00.790Z,5.10
2023-07-16T04:50:58.032Z,5.10
2023-07-16T05:02:22.596Z,5.10
2023-07-16T05:13:30.033Z,5.80
2023-07-16T05:24:44.633Z,4.70
2023-07-16T05:35:38.667Z,4.30
2023-07-16T05:46:12.920Z,4.10
2023-07-16T05:56:57.420Z,4.00
2023-07-16T06:08:12.087Z,3.60
2023-07-16T06:18:47.243Z,4.20
2023-07-16T06:29:51.296Z,3.60
2023-07-16T06:40:32.502Z,3.20
2023-07-16T06:51:16.436Z,3.30
2023-07-16T07:01:42.690Z,3.20
2023-07-16T07:12:17.587Z,2.90
2023-07-16T07:22:43.514Z,2.90
2023-07-16T07:33:31.744Z,2.40
2023-07-16T07:44:11.847Z,2.60
2023-07-16T07:54:43.285Z,2.30
2023-07-16T08:04:50.677Z,2.40
2023-07-16T08:15:21.473Z,2.20
2023-07-16T08:25:28.243Z,2.50
2023-07-16T08:35:36.262Z,2.30
2023-07-16T08:46:03.503Z,2.50
2023-07-16T08:56:07.892Z,2.80
2023-07-16T09:06:19.314Z,2.60
2023-07-16T09:16:28.561Z,3.30
2023-07-16T09:26:49.165Z,3.50
2023-07-16T09:37:21.881Z,3.20
2023-07-16T09:47:32.395Z,3.60
2023-07-16T09:57:54.342Z,3.20
2023-07-16T10:08:03.726Z,3.60
2023-07-16T10:18:29.298Z,3.60
2023-07-16T10:38:59.525Z,4.20
2023-07-16T10:49:16.330Z,3.60
2023-07-16T10:59:45.736Z,3.70
2023-07-16T11:10:07.282Z,3.50
2023-07-16T11:20:34.485Z,3.10
2023-07-16T11:30:47.327Z,4.80
2023-07-16T11:40:54.584Z,6.10
2023-07-16T11:50:58.216Z,3.40
2023-07-16T12:01:28.362Z,3.40
2023-07-16T12:11:35.903Z,3.40
2023-07-16T12:21:54.742Z,3.10
2023-07-16T12:32:01.384Z,3.40
2023-07-16T12:42:15.294Z,3.40
2023-07-16T12:52:34.998Z,3.40
2023-07-16T13:02:55.724Z,3.30
2023-07-16T13:13:21.624Z,3.70
2023-07-16T13:23:25.136Z,3.00
2023-07-16T13:33:34.679Z,3.60
2023-07-16T13:43:45.773Z,3.50
2023-07-16T13:53:52.401Z,3.20
2023-07-16T14:04:15.314Z,3.50
2023-07-16T14:14:44.814Z,4.10
2023-07-16T14:24:52.213Z,3.50
2023-07-16T14:34:57.008Z,3.90
2023-07-16T14:45:23.572Z,3.70
2023-07-16T14:55:32.793Z,3.90
2023-07-16T15:05:44.429Z,3.00
2023-07-16T15:16:05.573Z,3.10
2023-07-16T15:26:52.745Z,3.80
2023-07-16T15:37:10.212Z,3.30
2023-07-16T15:57:35.269Z,3.40
2023-07-16T16:08:05.550Z,3.30
2023-07-16T16:18:10.765Z,3.50
2023-07-16T16:28:15.547Z,4.10
2023-07-16T16:38:28.381Z,3.60
2023-07-16T16:48:52.357Z,3.70
2023-07-16T16:58:59.745Z,4.70
2023-07-16T17:09:07.045Z,4.60
2023-07-16T17:19:34.792Z,4.60
2023-07-16T17:29:43.450Z,5.00
2023-07-16T17:40:01.611Z,5.60
2023-07-16T17:50:16.584Z,6.00
2023-07-16T18:00:44.207Z,5.60
2023-07-16T18:11:09.494Z,6.30
2023-07-16T18:21:24.674Z,6.70
2023-07-16T18:31:36.507Z,7.70
2023-07-16T18:42:20.481Z,6.70
2023-07-16T18:52:39.807Z,8.20
2023-07-16T19:03:20.627Z,8.50
2023-07-16T19:13:43.201Z,7.70
2023-07-16T19:24:18.991Z,7.60
2023-07-16T19:34:45.438Z,8.40
2023-07-16T19:45:00.225Z,8.40
2023-07-16T19:55:24.829Z,8.60
2023-07-16T20:06:01.278Z,8.20
2023-07-16T20:16:32.087Z,8.10
2023-07-16T20:26:53.919Z,8.40
2023-07-16T20:37:22.966Z,8.50
2023-07-16T20:48:03.923Z,8.70
2023-07-16T20:58:37.032Z,8.00
2023-07-16T21:09:12.167Z,7.40
2023-07-16T21:20:12.540Z,7.30
2023-07-16T21:30:54.965Z,7.80
2023-07-16T21:41:21.522Z,7.80
2023-07-16T21:51:41.585Z,8.10
2023-07-16T22:02:32.292Z,8.40
2023-07-16T22:13:29.423Z,8.70
2023-07-16T22:24:18.038Z,8.10
2023-07-16T22:35:01.512Z,8.40
2023-07-16T22:45:33.805Z,7.90
2023-07-16T22:56:33.834Z,8.90
2023-07-16T23:07:42.355Z,8.90
2023-07-16T23:18:47.529Z,9.10
2023-07-16T23:29:44.419Z,8.60
2023-07-16T23:40:08.005Z,8.30
2023-07-16T23:50:53.579Z,9.00
